Terminal Aerodrome Forecast
Issued by NWS

Home | Current Version | Previous Version | Graphics & Text | Print | Product List | Glossary On
Versions: 1 2 3 4 5 6 7 8 9 10 11 12 13 14 15 16 17 18 19 20 21 22
000
FTUS41 KCLE 250500
TAFFDY
TAF
KFDY 250530Z 2506/2606 22008KT P6SM VCSH OVC019
     FM251000 25008KT 5SM -SN OVC015
     FM251400 13014G22KT 1SM -SN OVC008
     FM251800 06013G18KT 1SM -SN OVC008
     FM252300 06012KT 4SM -SHSN BR OVC008=

USA.gov is the U.S. government's official web portal to all federal, state and local government web resources and services.